Time;durP1;ratioP1;P1;durP2;ratioP2;P2;SDS_P1;SDS_P2;PMS_P1;PMS_P2;Temp;Humidity;BMP_temperature;BMP_pressure;BME280_temperature;BME280_humidity;BME280_pressure;Samples;Min_cycle;Max_cycle;Signal;HPM_P1;HPM_P2
2020/12/27 00:02:04;;;;;;;5.35;3.35;;;;;;;1.41;67.69;98697.81;5134030;27;20043;-64
2020/12/27 00:04:33;;;;;;;6.82;3.30;;;;;;;1.35;67.52;98685.34;5133745;27;20072;-64
2020/12/27 00:07:04;;;;;;;8.15;3.95;;;;;;;1.31;67.66;98673.56;5115442;27;20047;-64
2020/12/27 00:09:30;;;;;;;7.78;3.78;;;;;;;1.31;67.75;98670.13;5134322;27;20031;-64
2020/12/27 00:11:57;;;;;;;5.45;3.35;;;;;;;1.33;67.44;98656.00;5133979;27;20484;-64
2020/12/27 00:14:24;;;;;;;6.13;3.63;;;;;;;1.32;67.46;98654.38;5115166;27;20043;-64
2020/12/27 00:16:50;;;;;;;7.25;3.50;;;;;;;1.27;67.58;98653.97;5133914;27;20050;-64
2020/12/27 00:19:18;;;;;;;6.72;3.53;;;;;;;1.28;67.55;98647.78;5133847;27;20047;-64
2020/12/27 00:21:45;;;;;;;5.30;2.97;;;;;;;1.27;67.52;98638.34;5133605;27;20054;-64
2020/12/27 00:24:12;;;;;;;7.50;3.80;;;;;;;1.26;67.41;98641.88;5133436;27;20058;-64
2020/12/27 00:26:39;;;;;;;5.65;3.60;;;;;;;1.27;67.33;98638.34;5134029;27;20119;-64
2020/12/27 00:29:05;;;;;;;5.68;3.60;;;;;;;1.27;67.34;98637.53;5133685;27;20042;-64
2020/12/27 00:31:32;;;;;;;7.68;4.03;;;;;;;1.31;67.37;98631.06;5115381;27;20043;-64
2020/12/27 00:33:59;;;;;;;5.88;3.65;;;;;;;1.30;67.04;98632.00;5133480;27;20050;-64
2020/12/27 00:36:26;;;;;;;8.05;4.80;;;;;;;1.31;67.44;98618.06;5133839;27;20493;-64
2020/12/27 00:38:53;;;;;;;6.75;4.70;;;;;;;1.32;67.28;98610.09;5133791;27;20468;-64
2020/12/27 00:41:21;;;;;;;4.65;2.90;;;;;;;1.30;67.11;98608.56;5133638;27;20043;-64
2020/12/27 00:43:49;;;;;;;7.40;2.72;;;;;;;1.27;67.36;98601.88;5133466;27;20053;-63
2020/12/27 00:46:16;;;;;;;4.70;3.38;;;;;;;1.24;67.39;98591.72;5133586;27;20043;-64
2020/12/27 00:48:43;;;;;;;4.82;2.72;;;;;;;1.26;67.38;98575.97;5133502;27;20114;-64
2020/12/27 00:51:10;;;;;;;3.95;2.72;;;;;;;1.29;67.50;98573.09;5115124;27;20047;-64
2020/12/27 00:53:38;;;;;;;3.65;2.67;;;;;;;1.34;67.21;98561.28;5115051;27;20043;-63
2020/12/27 00:56:08;;;;;;;4.22;2.60;;;;;;;1.28;67.08;98545.41;5115566;27;20076;-64
2020/12/27 00:58:49;;;;;;;3.30;2.50;;;;;;;1.31;66.93;98537.31;5116008;27;20406;-64
2020/12/27 01:01:16;;;;;;;3.47;2.55;;;;;;;1.30;67.06;98523.44;5115486;27;20039;-64
2020/12/27 01:03:43;;;;;;;3.03;2.55;;;;;;;1.31;67.12;98519.91;5133074;27;20092;-64
2020/12/27 01:06:22;;;;;;;3.80;2.50;;;;;;;1.30;67.06;98514.81;5133501;27;20071;-64
2020/12/27 01:08:51;;;;;;;3.58;2.58;;;;;;;1.29;66.86;98500.16;5115046;27;20051;-64
2020/12/27 01:11:19;;;;;;;3.42;2.88;;;;;;;1.34;66.78;98493.56;5114855;28;20133;-64
2020/12/27 01:13:46;;;;;;;5.32;3.15;;;;;;;1.26;66.88;98490.84;5132815;27;20088;-64
2020/12/27 01:16:14;;;;;;;4.53;3.00;;;;;;;1.27;66.84;98491.69;5133045;27;20450;-64
2020/12/27 01:18:42;;;;;;;3.75;2.45;;;;;;;1.27;66.79;98483.88;5114791;28;20100;-64
2020/12/27 01:21:09;;;;;;;6.57;3.00;;;;;;;1.24;67.05;98474.56;5114757;28;20050;-63
2020/12/27 01:23:36;;;;;;;3.05;2.40;;;;;;;1.24;66.76;98467.56;5114423;28;20532;-64
2020/12/27 01:26:04;;;;;;;5.00;2.28;;;;;;;1.21;66.94;98467.00;5114509;28;20044;-64
2020/12/27 01:28:31;;;;;;;4.38;2.35;;;;;;;1.27;67.03;98463.84;5133284;28;20043;-64
2020/12/27 01:31:05;;;;;;;2.50;2.30;;;;;;;1.19;67.02;98441.13;5114664;28;20134;-64
2020/12/27 01:33:38;;;;;;;4.57;2.70;;;;;;;1.24;66.99;98432.88;5114554;28;20138;-64
2020/12/27 01:36:05;;;;;;;4.38;2.60;;;;;;;1.21;66.87;98427.97;5114682;28;20035;-64
2020/12/27 01:38:33;;;;;;;4.35;2.60;;;;;;;1.17;66.99;98424.00;5133048;28;20088;-64
2020/12/27 01:41:02;;;;;;;2.95;2.60;;;;;;;1.17;67.01;98426.59;5114411;28;20043;-64
2020/12/27 01:43:32;;;;;;;5.40;2.95;;;;;;;1.20;67.07;98419.34;5114294;28;20527;-64
2020/12/27 01:46:02;;;;;;;4.07;2.92;;;;;;;1.24;66.95;98414.66;5114596;28;20051;-64
2020/12/27 01:48:30;;;;;;;3.58;2.00;;;;;;;1.22;66.92;98406.16;5114556;28;20051;-64
2020/12/27 01:51:01;;;;;;;3.65;2.40;;;;;;;1.21;66.83;98405.34;5114583;28;20091;-64
2020/12/27 01:53:44;;;;;;;3.22;2.38;;;;;;;1.19;66.96;98394.25;5114629;28;20043;-64
2020/12/27 01:56:27;;;;;;;4.25;2.35;;;;;;;1.25;66.78;98387.66;5114528;28;20594;-64
2020/12/27 01:59:03;;;;;;;2.40;2.20;;;;;;;1.23;66.56;98385.19;5114442;28;20092;-64
2020/12/27 02:01:31;;;;;;;4.32;2.58;;;;;;;1.20;66.72;98380.28;5114413;28;20047;-64
2020/12/27 02:04:15;;;;;;;4.43;2.13;;;;;;;1.20;66.91;98372.47;5114161;28;20050;-64
2020/12/27 02:06:46;;;;;;;4.25;2.63;;;;;;;1.20;66.69;98369.03;5114317;28;20047;-64
2020/12/27 02:09:29;;;;;;;5.07;2.50;;;;;;;1.15;66.68;98353.84;5118349;27;20514;-64
2020/12/27 02:12:04;;;;;;;2.60;1.83;;;;;;;1.15;66.50;98351.25;5118031;27;20043;-63
2020/12/27 02:14:37;;;;;;;3.70;2.17;;;;;;;1.05;66.90;98342.66;5117728;27;20134;-64
2020/12/27 02:17:06;;;;;;;6.80;2.70;;;;;;;1.06;66.90;98346.06;5117990;27;20043;-64
2020/12/27 02:19:56;;;;;;;5.07;2.20;;;;;;;1.08;66.96;98331.13;5118022;27;20066;-64
2020/12/27 02:22:39;;;;;;;4.47;2.05;;;;;;;1.03;66.66;98328.16;5117823;27;20047;-64
2020/12/27 02:25:39;;;;;;;3.35;2.45;;;;;;;0.99;66.53;98333.63;5117641;27;20047;-64
2020/12/27 02:28:14;;;;;;;4.82;2.20;;;;;;;0.97;66.58;98314.72;5117785;27;20096;-64
2020/12/27 02:30:41;;;;;;;4.70;1.80;;;;;;;0.91;66.55;98302.31;5117635;27;20048;-64
2020/12/27 02:33:09;;;;;;;3.95;2.13;;;;;;;0.89;66.54;98301.63;5136000;27;20070;-64
2020/12/27 02:35:37;;;;;;;5.22;2.05;;;;;;;0.91;66.73;98291.06;5117640;27;20043;-64
2020/12/27 02:38:06;;;;;;;4.32;1.83;;;;;;;0.90;66.53;98292.88;5117411;27;20129;-64
2020/12/27 02:40:35;;;;;;;3.30;1.60;;;;;;;0.83;66.56;98280.56;5117446;27;20043;-64
2020/12/27 02:43:41;;;;;;;3.70;1.90;;;;;;;0.83;66.54;98272.75;5114792;27;20061;-64
2020/12/27 02:46:19;;;;;;;3.53;1.60;;;;;;;0.86;66.55;98267.28;5136179;27;20412;-64
2020/12/27 02:49:06;;;;;;;2.70;1.63;;;;;;;0.87;66.48;98264.53;5135839;27;20047;-64
2020/12/27 02:51:33;;;;;;;2.50;1.77;;;;;;;0.93;66.53;98253.50;5136167;27;20552;-64
2020/12/27 02:54:00;;;;;;;1.60;1.50;;;;;;;0.99;66.28;98252.94;5135527;27;20457;-64
2020/12/27 02:56:30;;;;;;;6.10;1.80;;;;;;;0.90;66.34;98232.19;5117314;27;20078;-64
2020/12/27 02:59:00;;;;;;;3.72;1.67;;;;;;;0.89;66.18;98228.75;5135972;27;20481;-64
2020/12/27 03:01:27;;;;;;;3.33;1.83;;;;;;;0.92;66.11;98223.25;5135905;27;20035;-64
2020/12/27 03:04:12;;;;;;;3.60;1.70;;;;;;;0.92;66.13;98210.25;5135483;27;20193;-63
2020/12/27 03:06:41;;;;;;;2.78;1.65;;;;;;;0.88;65.80;98198.50;5116949;27;20092;-63
2020/12/27 03:09:20;;;;;;;1.70;1.60;;;;;;;0.89;65.71;98176.69;5117171;27;20055;-64
2020/12/27 03:12:01;;;;;;;5.18;2.10;;;;;;;0.87;66.07;98167.41;5117356;27;20047;-64
2020/12/27 03:14:29;;;;;;;2.75;1.45;;;;;;;0.93;65.81;98152.03;5116711;27;20521;-63
2020/12/27 03:17:22;;;;;;;2.58;1.83;;;;;;;0.92;65.71;98147.78;5135661;27;20050;-64
2020/12/27 03:20:01;;;;;;;2.78;1.40;;;;;;;0.92;65.87;98139.16;5116995;27;20394;-63
2020/12/27 03:22:38;;;;;;;3.55;1.73;;;;;;;0.84;65.69;98132.09;5124902;27;20088;-63
2020/12/27 03:25:31;;;;;;;4.57;1.85;;;;;;;0.85;65.47;98105.09;5150294;27;20050;-63
2020/12/27 03:27:58;;;;;;;2.20;1.67;;;;;;;0.89;65.71;98100.41;5120086;27;20326;-63
2020/12/27 03:30:25;;;;;;;4.97;1.70;;;;;;;0.91;65.38;98106.31;5135338;27;20110;-63
2020/12/27 03:32:55;;;;;;;4.47;1.60;;;;;;;0.95;65.51;98097.25;5116597;27;20134;-64
2020/12/27 03:35:23;;;;;;;2.55;1.40;;;;;;;0.92;65.21;98087.13;5116005;27;20527;-64
2020/12/27 03:37:51;;;;;;;1.95;1.60;;;;;;;0.88;65.42;98085.78;5116492;27;20047;-63
2020/12/27 03:40:42;;;;;;;1.40;1.30;;;;;;;0.87;65.63;98097.97;5116210;27;20051;-63
2020/12/27 03:43:32;;;;;;;2.90;1.60;;;;;;;0.91;65.45;98086.31;5095550;27;20062;-63
2020/12/27 03:46:00;;;;;;;3.55;1.83;;;;;;;0.93;65.37;98081.75;5116112;27;20042;-63
2020/12/27 03:48:43;;;;;;;1.73;1.60;;;;;;;0.97;65.56;98080.47;5116189;27;20591;-63
2020/12/27 03:51:36;;;;;;;4.10;1.65;;;;;;;0.93;65.28;98047.91;5116126;27;20047;-65
2020/12/27 03:54:03;;;;;;;4.50;1.40;;;;;;;0.99;65.48;98039.53;5115654;27;20045;-64
2020/12/27 03:57:05;;;;;;;2.22;1.52;;;;;;;1.01;65.49;98036.75;5115993;27;20050;-63
2020/12/27 04:00:03;;;;;;;2.40;1.30;;;;;;;1.07;65.61;98025.75;5134291;27;20080;-63
2020/12/27 04:02:54;;;;;;;2.72;1.70;;;;;;;1.12;65.17;98018.31;5115921;27;20062;-64
2020/12/27 04:05:21;;;;;;;3.75;1.73;;;;;;;1.11;65.10;98013.25;5115579;27;20134;-64
2020/12/27 04:07:48;;;;;;;1.95;1.45;;;;;;;1.09;65.19;98004.78;5115919;27;20053;-64
2020/12/27 04:10:19;;;;;;;3.65;1.70;;;;;;;1.04;65.31;98002.63;5116031;27;20443;-64
2020/12/27 04:12:47;;;;;;;2.30;1.90;;;;;;;1.02;65.26;97991.56;5115882;27;20047;-64
2020/12/27 04:15:14;;;;;;;5.20;1.95;;;;;;;1.06;65.30;97976.44;5115325;27;20075;-64
2020/12/27 04:17:54;;;;;;;3.88;2.00;;;;;;;1.07;65.45;97972.88;5115609;27;20054;-63
2020/12/27 04:20:25;;;;;;;2.75;1.45;;;;;;;1.12;65.29;97974.06;5115638;27;20043;-64
2020/12/27 04:22:52;;;;;;;4.28;2.33;;;;;;;1.15;65.25;97965.94;5133929;27;20042;-64
2020/12/27 04:25:19;;;;;;;4.03;2.13;;;;;;;1.14;65.38;97961.72;5115111;27;20058;-63
2020/12/27 04:27:47;;;;;;;3.08;2.03;;;;;;;1.19;65.34;97951.66;5133958;27;20043;-64
2020/12/27 04:30:15;;;;;;;2.17;1.98;;;;;;;1.19;65.18;97932.63;5114881;27;20043;-64
2020/12/27 04:32:59;;;;;;;2.83;2.00;;;;;;;1.20;65.18;97921.22;5115913;27;20138;-64
2020/12/27 04:35:33;;;;;;;3.22;2.00;;;;;;;1.15;65.27;97911.28;5115007;27;20570;-64
2020/12/27 04:38:00;;;;;;;2.30;1.83;;;;;;;1.20;65.26;97905.59;5115599;27;20413;-64
2020/12/27 04:40:34;;;;;;;3.30;2.30;;;;;;;1.24;65.21;97891.31;5115392;27;20047;-64
2020/12/27 04:43:03;;;;;;;2.55;2.22;;;;;;;1.26;65.19;97898.94;5115188;27;20137;-64
2020/12/27 04:45:40;;;;;;;3.05;1.92;;;;;;;1.21;65.53;97891.59;5114920;27;20544;-64
2020/12/27 04:48:25;;;;;;;;;;;;;;;1.16;65.20;97886.06;5115862;27;20464;-63
2020/12/27 04:51:13;;;;;;;5.50;2.50;;;;;;;1.15;65.53;97871.41;5134418;27;19925;-63
2020/12/27 04:53:45;;;;;;;3.83;2.03;;;;;;;1.19;65.47;97870.94;5115636;27;20512;-64
2020/12/27 04:56:26;;;;;;;4.68;2.63;;;;;;;1.14;65.28;97861.94;5115407;27;20043;-64
2020/12/27 04:59:07;;;;;;;3.40;2.33;;;;;;;1.15;65.46;97848.00;5116156;27;20053;-64
2020/12/27 05:01:34;;;;;;;3.67;2.33;;;;;;;1.20;65.32;97833.50;5116607;27;20474;-64
2020/12/27 05:04:23;;;;;;;5.43;2.40;;;;;;;1.18;65.30;97814.66;5116966;27;20499;-64
2020/12/27 05:07:17;;;;;;;3.80;2.50;;;;;;;1.15;65.42;97816.75;5118136;27;20039;-64
2020/12/27 05:10:03;;;;;;;2.92;1.95;;;;;;;1.21;65.48;97805.69;5136815;27;20123;-63
2020/12/27 05:12:33;;;;;;;4.68;2.65;;;;;;;1.13;65.51;97795.25;5118342;28;20059;-64
2020/12/27 05:15:01;;;;;;;5.18;2.63;;;;;;;1.11;65.56;97787.59;5118456;27;20047;-64
2020/12/27 05:17:28;;;;;;;4.85;3.20;;;;;;;1.15;65.75;97772.50;5118766;28;20400;-64
2020/12/27 05:20:07;;;;;;;3.85;2.22;;;;;;;1.15;65.79;97772.50;5116898;28;20043;-64
2020/12/27 05:22:35;;;;;;;2.80;2.50;;;;;;;1.06;65.89;97773.41;5119573;28;20047;-64
2020/12/27 05:25:09;;;;;;;3.70;2.72;;;;;;;1.12;65.88;97771.00;5120712;28;20086;-63
2020/12/27 05:27:54;;;;;;;4.35;2.70;;;;;;;1.15;65.88;97772.50;5121324;28;20077;-63
2020/12/27 05:30:43;;;;;;;5.50;3.17;;;;;;;1.12;65.98;97760.59;5121469;28;20044;-63
2020/12/27 05:33:38;;;;;;;5.47;3.17;;;;;;;1.17;66.20;97749.72;5108539;28;20069;-64
2020/12/27 05:36:12;;;;;;;4.68;2.83;;;;;;;1.17;65.96;97718.47;5137984;27;20496;-64
2020/12/27 05:38:45;;;;;;;3.70;2.67;;;;;;;1.07;66.04;97736.84;5115124;28;20047;-63
2020/12/27 05:41:33;;;;;;;6.07;3.17;;;;;;;1.09;66.10;97731.47;5132663;27;20054;-64
2020/12/27 05:44:26;;;;;;;7.03;3.03;;;;;;;1.05;66.00;97736.16;5133710;27;20139;-64
2020/12/27 05:46:57;;;;;;;3.75;2.45;;;;;;;1.00;66.25;97730.63;5118718;27;20051;-64
2020/12/27 05:49:28;;;;;;;8.93;3.88;;;;;;;0.96;66.38;97722.31;5118615;27;20062;-64
2020/12/27 05:52:13;;;;;;;7.50;3.88;;;;;;;1.02;66.23;97726.09;5118521;27;20138;-64
2020/12/27 05:54:46;;;;;;;6.22;3.63;;;;;;;1.04;66.37;97689.50;5118268;27;20126;-65
2020/12/27 05:57:16;;;;;;;5.07;2.88;;;;;;;1.02;66.18;97707.88;5118534;27;20047;-64
2020/12/27 05:59:45;;;;;;;4.03;3.38;;;;;;;1.02;66.37;97705.28;5118436;27;20075;-64
2020/12/27 06:02:39;;;;;;;4.28;3.03;;;;;;;0.99;66.49;97698.59;5118534;27;20058;-64
2020/12/27 06:05:15;;;;;;;5.25;2.60;;;;;;;0.95;66.49;97686.88;5117860;27;20553;-64
2020/12/27 06:07:44;;;;;;;4.43;3.03;;;;;;;0.95;66.71;97673.84;5118139;27;20108;-64
2020/12/27 06:10:19;;;;;;;3.83;2.58;;;;;;;0.96;66.73;97672.06;5118084;27;20416;-64
2020/12/27 06:13:28;;;;;;;5.22;2.67;;;;;;;0.85;67.01;97659.34;5118077;27;20043;-63
2020/12/27 06:16:24;;;;;;;5.40;2.80;;;;;;;0.90;66.93;97670.13;5136523;27;20104;-64
2020/12/27 06:19:30;;;;;;;5.65;2.80;;;;;;;0.90;67.02;97663.13;5118053;27;20051;-64
2020/12/27 06:22:04;;;;;;;3.13;2.80;;;;;;;0.92;67.22;97660.34;5117829;27;20547;-64
2020/12/27 06:24:38;;;;;;;5.25;3.20;;;;;;;0.94;67.13;97659.22;5117702;27;20051;-64
2020/12/27 06:27:06;;;;;;;3.72;3.03;;;;;;;0.92;67.12;97652.53;5118032;27;20043;-64
2020/12/27 06:29:35;;;;;;;5.68;2.85;;;;;;;0.95;67.22;97642.63;5118020;27;20039;-64
2020/12/27 06:32:05;;;;;;;4.93;3.00;;;;;;;0.92;67.07;97637.75;5117783;27;20075;-64
2020/12/27 06:34:44;;;;;;;7.53;3.40;;;;;;;0.89;67.35;97638.06;5117396;27;20513;-64
2020/12/27 06:37:17;;;;;;;4.25;3.05;;;;;;;0.90;67.64;97616.28;5117548;27;20058;-64
2020/12/27 06:40:03;;;;;;;5.38;2.85;;;;;;;0.92;67.67;97609.13;5136454;27;20050;-64
2020/12/27 06:43:19;;;;;;;3.92;3.20;;;;;;;0.88;67.92;97607.81;5135889;27;20050;-64
2020/12/27 06:46:24;;;;;;;5.45;3.30;;;;;;;0.87;68.35;97593.19;5117420;27;20044;-64
2020/12/27 06:49:11;;;;;;;3.65;2.97;;;;;;;0.87;68.32;97593.19;5117679;27;20104;-64
2020/12/27 06:51:56;;;;;;;4.22;3.38;;;;;;;0.88;68.20;97592.19;5135989;27;20493;-64
2020/12/27 06:54:55;;;;;;;4.97;3.78;;;;;;;0.87;68.62;97589.78;5134470;27;20059;-63
2020/12/27 06:57:41;;;;;;;8.70;7.85;;;;;;;0.86;68.73;97575.94;5117138;27;20066;-63
2020/12/27 07:00:30;;;;;;;4.80;3.47;;;;;;;0.86;68.79;97568.16;5135215;27;20054;-63
2020/12/27 07:03:17;;;;;;;7.13;4.03;;;;;;;0.88;68.75;97560.97;5135569;27;20565;-62
2020/12/27 07:05:45;;;;;;;4.43;3.30;;;;;;;0.90;69.08;97545.22;5135297;27;20039;-65
2020/12/27 07:08:15;;;;;;;5.97;4.07;;;;;;;0.88;69.07;97557.56;5135477;27;20047;-63
2020/12/27 07:10:43;;;;;;;5.65;3.40;;;;;;;0.86;69.33;97551.72;5135318;27;20039;-63
2020/12/27 07:13:11;;;;;;;6.50;4.10;;;;;;;0.89;69.22;97546.97;5135236;27;20133;-62
2020/12/27 07:15:50;;;;;;;7.43;4.55;;;;;;;0.94;69.39;97536.94;5134958;27;20047;-63
2020/12/27 07:18:21;;;;;;;5.68;3.85;;;;;;;0.99;69.35;97541.63;5135264;27;20039;-63
2020/12/27 07:20:53;;;;;;;5.70;4.03;;;;;;;1.02;69.42;97530.91;5135205;27;20058;-63
2020/12/27 07:23:23;;;;;;;10.23;5.55;;;;;;;1.00;69.44;97522.44;5116528;27;20058;-63
2020/12/27 07:25:54;;;;;;;6.70;4.68;;;;;;;1.00;69.48;97522.44;5135051;27;20039;-63
2020/12/27 07:28:22;;;;;;;8.75;4.63;;;;;;;1.01;69.73;97518.84;5135130;27;20047;-63
2020/12/27 07:30:56;;;;;;;7.15;4.55;;;;;;;0.99;70.05;97506.00;5134946;27;20122;-63
2020/12/27 07:33:28;;;;;;;6.97;4.07;;;;;;;1.06;70.54;97515.75;5116608;27;20055;-63
2020/12/27 07:36:02;;;;;;;5.57;3.80;;;;;;;1.01;71.00;97492.81;5134788;27;20043;-63
2020/12/27 07:38:54;;;;;;;4.80;3.42;;;;;;;0.96;71.59;97480.31;5134972;27;20050;-63
2020/12/27 07:41:21;;;;;;;5.72;4.20;;;;;;;1.03;71.44;97477.06;5134691;27;20058;-63
2020/12/27 07:43:49;;;;;;;4.97;3.97;;;;;;;1.06;71.45;97476.72;5135604;27;20567;-62
2020/12/27 07:46:19;;;;;;;6.22;3.75;;;;;;;1.05;71.48;97465.50;5135542;27;20035;-63
2020/12/27 07:48:46;;;;;;;6.05;3.88;;;;;;;1.07;71.37;97452.34;5116577;27;20043;-63
2020/12/27 07:51:13;;;;;;;7.30;3.95;;;;;;;1.10;71.22;97433.75;5134687;27;20031;-63
2020/12/27 07:53:44;;;;;;;7.45;3.78;;;;;;;1.11;71.32;97438.00;5134774;27;20400;-63
2020/12/27 07:56:17;;;;;;;6.68;3.30;;;;;;;1.17;71.15;97434.72;5116163;27;20467;-64
2020/12/27 07:58:49;;;;;;;8.57;3.40;;;;;;;1.21;70.99;97423.00;5134626;27;20118;-63
2020/12/27 08:01:19;;;;;;;4.95;3.25;;;;;;;1.19;71.41;97414.56;5134499;27;20043;-63
2020/12/27 08:03:50;;;;;;;5.53;3.47;;;;;;;1.20;71.35;97413.59;5134135;27;20043;-63
2020/12/27 08:06:17;;;;;;;3.55;2.97;;;;;;;1.29;71.26;97396.13;5114813;27;20054;-63
2020/12/27 08:08:44;;;;;;;5.13;3.70;;;;;;;1.36;71.24;97378.88;5134338;27;20054;-63
2020/12/27 08:11:18;;;;;;;5.97;3.47;;;;;;;1.40;70.95;97374.94;5134488;27;20030;-63
2020/12/27 08:13:54;;;;;;;3.25;2.78;;;;;;;1.40;70.92;97370.56;5134153;27;20046;-63
2020/12/27 08:16:21;;;;;;;6.72;3.28;;;;;;;1.41;71.13;97346.13;5133961;27;20039;-63
2020/12/27 08:18:48;;;;;;;5.18;3.17;;;;;;;1.45;71.28;97346.59;5134066;27;20039;-64
2020/12/27 08:21:18;;;;;;;3.08;2.40;;;;;;;1.51;70.87;97326.88;5133986;27;20297;-64
2020/12/27 08:23:59;;;;;;;6.72;2.50;;;;;;;1.55;70.78;97328.16;5133582;27;20039;-64
2020/12/27 08:26:26;;;;;;;2.85;2.55;;;;;;;1.60;70.67;97325.84;5133926;27;20416;-64
2020/12/27 08:28:53;;;;;;;6.72;4.07;;;;;;;1.67;70.61;97314.59;5133781;27;20039;-64
2020/12/27 08:31:27;;;;;;;3.38;2.70;;;;;;;1.72;70.46;97314.06;5133947;27;20042;-64
2020/12/27 08:34:08;;;;;;;4.35;2.80;;;;;;;1.76;70.27;97306.72;5114996;27;20040;-63
2020/12/27 08:36:35;;;;;;;3.42;2.50;;;;;;;1.80;70.30;97305.38;5133807;27;20046;-64
2020/12/27 08:39:15;;;;;;;4.10;2.67;;;;;;;1.85;70.23;97303.88;5133581;27;20050;-64
2020/12/27 08:41:46;;;;;;;3.95;2.20;;;;;;;1.91;70.16;97313.59;5133421;27;20046;-64
2020/12/27 08:44:27;;;;;;;5.35;3.22;;;;;;;2.01;69.81;97297.72;5133435;27;20479;-64
2020/12/27 08:46:57;;;;;;;3.38;2.47;;;;;;;2.03;69.74;97289.72;5133581;27;20054;-64
2020/12/27 08:49:40;;;;;;;4.82;2.40;;;;;;;2.09;69.58;97295.06;5133740;27;20035;-64
2020/12/27 08:52:19;;;;;;;5.25;2.20;;;;;;;2.17;69.50;97275.94;5133579;27;20047;-64
2020/12/27 08:54:51;;;;;;;2.35;2.15;;;;;;;2.20;69.43;97263.34;5133189;27;20047;-64
2020/12/27 08:57:18;;;;;;;2.80;2.20;;;;;;;2.33;69.27;97257.53;5133494;27;20035;-64
2020/12/27 09:00:04;;;;;;;2.55;2.17;;;;;;;2.43;69.07;97254.66;5114775;27;20046;-64
2020/12/27 09:02:31;;;;;;;3.45;2.17;;;;;;;2.51;68.87;97254.56;5133155;27;20039;-64
2020/12/27 09:05:03;;;;;;;4.40;2.60;;;;;;;2.61;68.76;97241.25;5132883;27;20051;-63
2020/12/27 09:07:32;;;;;;;3.28;2.53;;;;;;;2.68;68.18;97234.31;5114737;27;20047;-63
2020/12/27 09:10:17;;;;;;;;;;;;;;;2.75;68.10;97214.34;5133495;27;20050;-63
2020/12/27 09:12:57;;;;;;;2.70;2.20;;;;;;;2.80;67.87;97201.56;5133085;27;19927;-62
2020/12/27 09:15:26;;;;;;;5.95;3.72;;;;;;;2.81;67.62;97191.91;5114302;28;20130;-63
2020/12/27 09:18:00;;;;;;;3.28;2.50;;;;;;;2.86;67.50;97200.84;5132812;27;20046;-63
2020/12/27 09:20:28;;;;;;;3.75;2.60;;;;;;;2.90;67.40;97191.66;5133134;27;20079;-65
2020/12/27 09:22:56;;;;;;;3.03;2.35;;;;;;;3.00;67.09;97193.16;5133151;27;20433;-63
2020/12/27 09:25:24;;;;;;;3.63;2.40;;;;;;;2.96;67.08;97170.03;5132633;28;20408;-63
2020/12/27 09:27:52;;;;;;;3.63;2.45;;;;;;;3.00;66.78;97169.66;5132909;27;20462;-63
2020/12/27 09:30:20;;;;;;;4.35;2.78;;;;;;;3.04;66.87;97163.06;5132824;28;20047;-63
2020/12/27 09:32:48;;;;;;;3.05;2.25;;;;;;;3.15;66.64;97157.38;5133102;28;20515;-63
2020/12/27 09:35:22;;;;;;;4.10;2.72;;;;;;;3.17;66.47;97150.94;5132535;27;20043;-63
2020/12/27 09:37:49;;;;;;;4.22;2.15;;;;;;;3.25;66.31;97138.78;5132745;27;20484;-63
2020/12/27 09:40:33;;;;;;;2.22;1.95;;;;;;;3.31;66.37;97131.00;5132819;28;20049;-62
2020/12/27 09:43:03;;;;;;;4.45;1.92;;;;;;;3.35;65.92;97121.00;5132655;28;20047;-63
2020/12/27 09:45:31;;;;;;;5.20;2.78;;;;;;;3.37;65.59;97129.44;5132374;28;20039;-63
2020/12/27 09:48:01;;;;;;;3.00;2.25;;;;;;;3.38;65.54;97115.38;5132588;28;20046;-63
2020/12/27 09:50:30;;;;;;;2.70;2.15;;;;;;;3.38;65.24;97107.53;5132681;28;20069;-63
2020/12/27 09:52:58;;;;;;;3.55;2.25;;;;;;;3.44;65.20;97091.94;5133594;28;20058;-64
2020/12/27 09:55:25;;;;;;;2.20;1.70;;;;;;;3.53;65.35;97086.56;5132255;27;20043;-64
2020/12/27 09:57:52;;;;;;;5.60;2.05;;;;;;;3.61;64.96;97083.81;5132587;27;20046;-64
2020/12/27 10:00:19;;;;;;;3.20;2.05;;;;;;;3.68;64.61;97069.00;5114197;28;20047;-64
2020/12/27 10:02:45;;;;;;;3.42;1.90;;;;;;;3.72;64.50;97063.19;5132353;28;20408;-64
2020/12/27 10:05:13;;;;;;;4.43;1.60;;;;;;;3.76;64.55;97055.78;5132145;28;20043;-64
2020/12/27 10:07:41;;;;;;;2.97;2.40;;;;;;;3.78;64.48;97050.34;5132491;27;20642;-64
2020/12/27 10:10:10;;;;;;;2.45;1.60;;;;;;;3.86;64.18;97045.78;5132493;28;20047;-64
2020/12/27 10:12:37;;;;;;;2.53;1.65;;;;;;;3.79;64.21;97033.66;5132393;28;20047;-64
2020/12/27 10:15:05;;;;;;;4.07;2.30;;;;;;;3.84;64.40;97026.06;5132117;28;20492;-64
2020/12/27 10:17:32;;;;;;;5.32;2.65;;;;;;;3.89;64.23;97028.91;5132219;27;20047;-63
2020/12/27 10:19:59;;;;;;;2.97;1.85;;;;;;;3.91;64.25;97025.09;5132637;27;20066;-64
2020/12/27 10:22:27;;;;;;;3.95;2.25;;;;;;;4.01;63.88;97027.34;5132250;27;20050;-63
2020/12/27 10:24:54;;;;;;;5.70;2.38;;;;;;;4.02;63.70;97015.09;5131979;28;20506;-63
2020/12/27 10:27:21;;;;;;;1.92;1.50;;;;;;;3.97;63.56;96994.75;5113937;27;20050;-63
2020/12/27 10:29:47;;;;;;;3.65;1.98;;;;;;;3.95;63.69;96981.06;5135014;27;20058;-63
2020/12/27 10:32:14;;;;;;;2.38;1.70;;;;;;;4.02;63.69;96974.06;5135993;27;20039;-64
2020/12/27 10:34:41;;;;;;;2.05;1.50;;;;;;;4.04;63.15;96945.91;5117186;27;20047;-64
2020/12/27 10:37:08;;;;;;;2.58;1.48;;;;;;;3.98;63.50;96947.50;5135933;27;20042;-63
2020/12/27 10:39:35;;;;;;;2.72;1.70;;;;;;;4.05;62.99;96938.88;5136057;27;20084;-64
2020/12/27 10:42:02;;;;;;;1.70;1.50;;;;;;;4.04;63.41;96937.25;5135730;27;20046;-63
2020/12/27 10:44:29;;;;;;;2.47;1.42;;;;;;;4.00;63.16;96936.84;5135400;27;20039;-64
2020/12/27 10:46:55;;;;;;;5.05;2.30;;;;;;;4.03;63.04;96922.56;5136036;27;20043;-64
2020/12/27 10:49:23;;;;;;;2.25;1.50;;;;;;;4.00;63.11;96909.88;5136102;27;20103;-64
2020/12/27 10:51:51;;;;;;;2.03;1.67;;;;;;;3.94;63.34;96898.41;5135822;27;20050;-64
2020/12/27 10:54:17;;;;;;;4.50;2.05;;;;;;;4.00;63.22;96897.63;5135586;27;20047;-63
2020/12/27 10:56:46;;;;;;;2.95;1.80;;;;;;;3.90;63.40;96874.47;5117116;27;20045;-63
2020/12/27 10:59:14;;;;;;;3.13;1.90;;;;;;;3.92;63.29;96880.31;5135455;27;20035;-63
2020/12/27 11:01:45;;;;;;;2.13;1.92;;;;;;;3.93;63.47;96878.50;5135374;27;20047;-63
2020/12/27 11:04:13;;;;;;;2.95;2.03;;;;;;;3.85;63.37;96855.97;5117023;27;20147;-63
2020/12/27 11:06:40;;;;;;;4.03;2.00;;;;;;;3.88;63.66;96852.97;5135467;27;20046;-64
2020/12/27 11:09:07;;;;;;;2.35;1.70;;;;;;;3.85;63.49;96842.09;5135423;27;20509;-64
2020/12/27 11:11:34;;;;;;;2.30;1.48;;;;;;;3.83;63.36;96816.13;5135450;27;20046;-64
2020/12/27 11:14:03;;;;;;;1.73;1.50;;;;;;;3.77;63.27;96831.81;5116679;27;20043;-64
2020/12/27 11:16:31;;;;;;;1.70;1.50;;;;;;;3.81;63.41;96825.19;5135354;27;20039;-64
2020/12/27 11:18:58;;;;;;;3.15;1.90;;;;;;;3.82;63.24;96816.34;5135573;27;20068;-64
2020/12/27 11:21:25;;;;;;;1.88;1.55;;;;;;;3.80;63.18;96808.72;5135353;27;20514;-64
2020/12/27 11:23:52;;;;;;;3.47;2.60;;;;;;;3.86;63.17;96799.25;5134897;27;20039;-64
2020/12/27 11:26:19;;;;;;;3.67;2.10;;;;;;;3.85;63.25;96789.81;5135412;27;20035;-64
2020/12/27 11:28:47;;;;;;;3.03;2.03;;;;;;;3.85;63.25;96779.34;5135237;27;20035;-64
2020/12/27 11:31:19;;;;;;;3.80;1.73;;;;;;;3.90;63.22;96759.44;5116434;27;20031;-64
2020/12/27 11:33:46;;;;;;;2.15;1.85;;;;;;;3.87;63.07;96748.59;5134869;27;20047;-64
2020/12/27 11:36:13;;;;;;;1.92;1.40;;;;;;;3.83;62.81;96748.19;5134980;27;20470;-64
2020/12/27 11:38:40;;;;;;;2.08;1.63;;;;;;;3.72;63.19;96731.31;5135003;27;20035;-64
2020/12/27 11:41:07;;;;;;;3.58;2.00;;;;;;;3.71;63.38;96727.09;5134719;27;20442;-64
2020/12/27 11:43:34;;;;;;;2.38;1.52;;;;;;;3.74;63.24;96720.63;5134563;27;20043;-64
2020/12/27 11:46:02;;;;;;;3.40;2.35;;;;;;;3.73;63.18;96708.59;5116575;27;20409;-64
2020/12/27 11:48:29;;;;;;;4.20;2.10;;;;;;;3.74;63.44;96689.28;5135050;27;20039;-64
2020/12/27 11:50:56;;;;;;;4.68;2.17;;;;;;;3.77;63.44;96688.06;5134924;27;20042;-64
2020/12/27 11:53:23;;;;;;;2.47;1.52;;;;;;;3.77;63.44;96685.47;5134271;27;20435;-64
2020/12/27 11:55:50;;;;;;;10.23;6.13;;;;;;;3.80;63.20;96678.03;5134486;27;20047;-64
2020/12/27 11:58:17;;;;;;;3.75;2.38;;;;;;;3.76;63.30;96668.97;5134658;27;20066;-64
2020/12/27 12:00:43;;;;;;;2.65;2.22;;;;;;;3.82;63.16;96657.72;5134319;27;20492;-64
2020/12/27 12:03:10;;;;;;;3.40;1.88;;;;;;;3.77;63.03;96644.44;5134633;27;20051;-65
2020/12/27 12:05:38;;;;;;;2.78;2.00;;;;;;;3.72;63.18;96628.59;5133868;27;20043;-64
2020/12/27 12:08:04;;;;;;;2.38;1.50;;;;;;;3.69;63.28;96629.78;5134322;27;20055;-64
2020/12/27 12:10:31;;;;;;;3.88;2.15;;;;;;;3.70;63.24;96607.88;5134389;27;20099;-64